D/T METAR WX W/SPE G/SPE TEMP DEWP FEEL
31/01/23 13:20 EGPL 311320Z 29031G42KT 9999 VCSH FEW014CB SCT022 06/03 Q1011 VCSH 35.7mph 48.3mph 6°C 3°C 4.7°C
31/01/23 12:50 EGPL 311250Z 28033G52KT 9999 VCSH FEW014CB SCT030 04/02 Q1011 VCSH 38.0mph 59.8mph 4°C 2°C 2.4°C
31/01/23 12:20 EGPL 311220Z 28034KT 9999 VCSH FEW014CB 07/02 Q1011 VCSH 39.1mph 7°C 2°C 5.4°C
31/01/23 07:20 EGPL 310720Z 27033KT 9999 VCSH FEW008 SCT015 05/02 Q1009 RERA VCSH 38.0mph 5°C 2°C 3.4°C
30/01/23 21:50 EGPL 302150Z AUTO 25019KT 9999 FEW005/// BKN010/// BKN036/// 09/08 Q1010 21.9mph 9°C 8°C 9.4°C
30/01/23 12:50 EGPL 301250Z 26015KT 9999 FEW015 08/04 Q1019 17.3mph 8°C 4°C 7.0°C
30/01/23 11:50 EGPL 301150Z 28011KT 9999 FEW010 SCT022 08/04 Q1020 12.7mph 8°C 4°C 7.0°C
30/01/23 10:50 EGPL 301050Z 28012KT 9999 VCSH FEW010 SCT022 07/04 Q1020 VCSH 13.8mph 7°C 4°C 6.0°C
30/01/23 09:50 EGPL 300950Z 27009KT 9999 VCSH FEW006 SCT016 07/04 Q1020 VCSH 10.4mph 7°C 4°C 6.0°C
30/01/23 07:50 EGPL 300750Z 31010KT 9999 VCSH FEW008 SCT012 07/04 Q1019 VCSH 11.5mph 7°C 4°C 6.0°C
09/01/23 06:20 EGPL 090620Z AUTO 26019KT 9999 BKN009/// BKN025/// 08/03 Q0983 21.9mph 8°C 3°C 6.7°C
09/01/23 05:50 EGPL 090550Z AUTO 26019KT 9999 FEW008/// SCT017/// 07/03 Q0982 21.9mph 7°C 3°C 5.7°C
09/01/23 05:20 EGPL 090520Z AUTO 27019KT 9999 FEW010/// 07/03 Q0982 21.9mph 7°C 3°C 5.7°C
09/01/23 04:50 EGPL 090450Z AUTO 27022KT 9999 FEW009/// 08/02 Q0982 25.3mph 8°C 2°C 6.4°C
09/01/23 04:20 EGPL 090420Z AUTO 27022KT 9999 FEW011/// 08/03 Q0982 25.3mph 8°C 3°C 6.7°C
09/01/23 03:50 EGPL 090350Z AUTO 28021KT 9999 NCD 08/03 Q0981 24.2mph 8°C 3°C 6.7°C
09/01/23 03:20 EGPL 090320Z AUTO 28019KT 9999 SCT008/// 08/03 Q0981 21.9mph 8°C 3°C 6.7°C
09/01/23 02:50 EGPL 090250Z AUTO 28020KT 9999 FEW008/// 08/04 Q0981 23.0mph 8°C 4°C 7.0°C
09/01/23 02:20 EGPL 090220Z AUTO 28021KT 9999 SCT009/// 08/04 Q0980 RERA 24.2mph 8°C 4°C 7.0°C
09/01/23 01:20 EGPL 090120Z AUTO 28015KT 9999 FEW008/// SCT013/// 07/04 Q0979 17.3mph 7°C 4°C 6.0°C
09/01/23 00:50 EGPL 090050Z AUTO 28019KT 9999 FEW008/// 07/04 Q0979 21.9mph 7°C 4°C 6.0°C
09/01/23 00:20 EGPL 090020Z AUTO 28019KT 9999 SCT011/// SCT020/// 07/04 Q0979 21.9mph 7°C 4°C 6.0°C
08/01/23 23:50 EGPL 082350Z AUTO 28018KT 9999 SCT012/// 07/03 Q0978 20.7mph 7°C 3°C 5.7°C
08/01/23 23:20 EGPL 082320Z AUTO 29014KT 9999 FEW009/// BKN014/// 07/03 Q0978 16.1mph 7°C 3°C 5.7°C
08/01/23 22:50 EGPL 082250Z AUTO 29023KT 6000 -RA BKN009/// 07/04 Q0978 -RA 26.5mph 7°C 4°C 6.0°C
08/01/23 22:20 EGPL 082220Z AUTO 29016KT 9999 FEW017/// 07/04 Q0977 18.4mph 7°C 4°C 6.0°C
08/01/23 21:50 EGPL 082150Z AUTO 28013KT 9999 BKN008/// 07/04 Q0977 15.0mph 7°C 4°C 6.0°C
08/01/23 20:20 EGPL 082020Z AUTO 26009KT 9999 SCT015/// SCT026/// 07/05 Q0975 10.4mph 7°C 5°C 6.3°C
08/01/23 19:20 EGPL 081920Z AUTO 27011KT 9999 FEW033/// 07/05 Q0974 12.7mph 7°C 5°C 6.3°C
08/01/23 18:50 EGPL 081850Z AUTO 29013KT 9999 SCT009/// SCT013/// BKN019/// 07/05 Q0974 15.0mph 7°C 5°C 6.3°C
08/01/23 18:20 EGPL 081820Z AUTO 25012KT 9999 SCT008/// 08/05 Q0974 13.8mph 8°C 5°C 7.3°C
08/01/23 17:50 EGPL 081750Z AUTO 25013KT 9999 FEW012/// SCT017/// 07/05 Q0973 15.0mph 7°C 5°C 6.3°C
08/01/23 16:50 EGPL 081650Z AUTO 26009KT 9999 SCT008/// SCT019/// 07/04 Q0972 10.4mph 7°C 4°C 6.0°C
08/01/23 16:20 EGPL 081620Z AUTO 25011KT 9999 FEW007/// BKN016/// 08/05 Q0972 12.7mph 8°C 5°C 7.3°C
08/01/23 15:50 EGPL 081550Z AUTO 21007KT 9999 BKN008/// BKN011/// BKN016/// 07/05 Q0972 8.1mph 7°C 5°C 6.3°C
08/01/23 14:20 EGPL 081420Z 23011KT 9999 VCSH SCT010 BKN030 07/04 Q0971 VCSH 12.7mph 7°C 4°C 6.0°C
08/01/23 13:50 EGPL 081350Z 21013KT 9999 VCSH SCT010 BKN030 07/06 Q0970 VCSH 15.0mph 7°C 6°C 6.6°C
08/01/23 13:20 EGPL 081320Z 21017KT 9999 VCSH SCT010 BKN018 08/06 Q0970 VCSH 19.6mph 8°C 6°C 7.6°C
08/01/23 12:50 EGPL 081250Z 22023KT 9999 VCSH SCT009 BKN015 08/06 Q0970 VCSH 26.5mph 8°C 6°C 7.6°C
08/01/23 12:20 EGPL 081220Z 22024KT 9999 RA SCT009 BKN016 08/06 Q0969 RA 27.6mph 8°C 6°C 7.6°C
08/01/23 11:50 EGPL 081150Z 22026KT 9999 RA SCT010 BKN016 08/06 Q0969 RA 29.9mph 8°C 6°C 7.6°C
08/01/23 11:20 EGPL 081120Z AUTO 22028KT 9999 BKN004/// OVC009/// 07/05 Q0969 RERA 32.2mph 7°C 5°C 6.3°C
08/01/23 10:50 EGPL 081050Z AUTO 22030KT 6000 -RA SCT003/// BKN006/// BKN010/// 07/06 Q0969 RERA -RA 34.5mph 7°C 6°C 6.6°C
08/01/23 10:20 EGPL 081020Z AUTO 21033G46KT 7000 -RA BKN003/// OVC011/// 07/06 Q0968 RERA -RA 38.0mph 52.9mph 7°C 6°C 6.6°C
08/01/23 09:50 EGPL 080950Z AUTO 22035KT 5000 -RA SCT003/// OVC008/// 07/06 Q0967 RERA -RA 40.3mph 7°C 6°C 6.6°C
08/01/23 09:20 EGPL 080920Z AUTO 21032G43KT 4800 RA BKN004/// BKN010/// OVC028/// 07/05 Q0966 RA 36.8mph 49.5mph 7°C 5°C 6.3°C
08/01/23 08:50 EGPL 080850Z AUTO 21044G55KT 6000 -RA SCT005/// BKN009/// OVC018/// 07/05 Q0966 RERA -RA 50.6mph 63.3mph 7°C 5°C 6.3°C
08/01/23 08:20 EGPL 080820Z AUTO 21040G54KT 9999 -RA BKN004/// OVC010/// 07/05 Q0965 RERA -RA 46.0mph 62.1mph 7°C 5°C 6.3°C
08/01/23 07:50 EGPL 080750Z AUTO 20040G55KT 3900 RA BKN004/// OVC012/// 07/05 Q0964 RERA RA 46.0mph 63.3mph 7°C 5°C 6.3°C
08/01/23 07:20 EGPL 080720Z AUTO 21038G52KT 4700 RA BKN005/// BKN010/// 07/05 Q0964 RERA RA 43.7mph 59.8mph 7°C 5°C 6.3°C
08/01/23 06:50 EGPL 080650Z AUTO 20036G49KT 9999 BKN004/// BKN008/// OVC016/// 07/04 Q0965 RERA 41.4mph 56.4mph 7°C 4°C 6.0°C
08/01/23 06:20 EGPL 080620Z AUTO 20035G46KT 9999 BKN005/// OVC008/// 07/04 Q0965 RERA 40.3mph 52.9mph 7°C 4°C 6.0°C
08/01/23 05:50 EGPL 080550Z AUTO 20038G58KT 9999 -RA SCT006/// OVC010/// 06/04 Q0966 -RA 43.7mph 66.7mph 6°C 4°C 5.0°C
08/01/23 05:20 EGPL 080520Z AUTO 20037KT 9999 FEW006/// BKN009/// OVC024/// 06/04 Q0967 RERA 42.6mph 6°C 4°C 5.0°C
08/01/23 04:50 EGPL 080450Z AUTO 21032G43KT 9999 SCT007/// BKN010/// BKN022/// 07/03 Q0967 RERA 36.8mph 49.5mph 7°C 3°C 5.7°C
08/01/23 04:20 EGPL 080420Z AUTO 21033G50KT 2300 RA BKN006/// OVC015/// 06/04 Q0968 RERA RA 38.0mph 57.5mph 6°C 4°C 5.0°C
08/01/23 03:50 EGPL 080350Z AUTO 21039G58KT 9999 -RA BKN007/// 06/03 Q0968 RERA -RA 44.9mph 66.7mph 6°C 3°C 4.7°C
08/01/23 03:20 EGPL 080320Z AUTO 21031KT 9999 BKN007/// BKN012/// OVC017/// 08/03 Q0968 35.7mph 8°C 3°C 6.7°C
08/01/23 02:50 EGPL 080250Z AUTO 22033KT 9999 BKN006/// BKN013/// 08/03 Q0968 38.0mph 8°C 3°C 6.7°C
08/01/23 02:20 EGPL 080220Z AUTO 21028G39KT 9999 BKN010/// BKN017/// BKN022/// 08/04 Q0968 RERA 32.2mph 44.9mph 8°C 4°C 7.0°C
08/01/23 01:50 EGPL 080150Z AUTO 23031G43KT 9999 FEW006/// BKN011/// BKN033/// 08/03 Q0968 35.7mph 49.5mph 8°C 3°C 6.7°C
08/01/23 01:20 EGPL 080120Z AUTO 22026G43KT 9999 BKN007/// BKN012/// 08/05 Q0968 29.9mph 49.5mph 8°C 5°C 7.3°C
08/01/23 00:20 EGPL 080020Z AUTO 21024KT 9999 FEW012/// 09/04 Q0967 27.6mph 9°C 4°C 8.0°C
07/01/23 23:50 EGPL 072350Z AUTO 21023G36KT 9999 FEW005/// 07/05 Q0967 RERA 26.5mph 41.4mph 7°C 5°C 6.3°C
07/01/23 23:20 EGPL 072320Z AUTO 19025KT 9999 SCT006/// BKN014/// 08/05 Q0967 28.8mph 8°C 5°C 7.3°C
07/01/23 22:50 EGPL 072250Z AUTO 18025KT 9999 FEW005/// SCT012/// BKN016/// 08/05 Q0967 28.8mph 8°C 5°C 7.3°C
07/01/23 22:20 EGPL 072220Z AUTO 18027KT 9999 BKN006/// BKN010/// 08/06 Q0966 31.1mph 8°C 6°C 7.6°C
07/01/23 21:50 EGPL 072150Z AUTO 18035G49KT 9999 SCT012/// SCT025/// 07/05 Q0966 40.3mph 56.4mph 7°C 5°C 6.3°C
07/01/23 21:20 EGPL 072120Z AUTO 18035G47KT 9999 -RA BKN006/// OVC014/// 08/05 Q0966 RERA -RA 40.3mph 54.1mph 8°C 5°C 7.3°C
07/01/23 20:50 EGPL 072050Z AUTO 18034G46KT 3100 +RA BKN006/// OVC015/// 07/05 Q0967 +RA 39.1mph 52.9mph 7°C 5°C 6.3°C
07/01/23 20:20 EGPL 072020Z AUTO 17031KT 9999 -RA BKN006/// OVC010/// 07/05 Q0967 RERA -RA 35.7mph 7°C 5°C 6.3°C
07/01/23 19:50 EGPL 071950Z AUTO 17030KT 3900 RA SCT007/// BKN010/// 07/05 Q0968 RA 34.5mph 7°C 5°C 6.3°C
07/01/23 19:20 EGPL 071920Z AUTO 16030G41KT 9999 BKN006/// BKN010/// 07/05 Q0969 34.5mph 47.2mph 7°C 5°C 6.3°C
07/01/23 18:50 EGPL 071850Z AUTO 16032G42KT 9999 BKN004/// BKN009/// OVC013/// 07/05 Q0970 RERA 36.8mph 48.3mph 7°C 5°C 6.3°C
07/01/23 18:20 EGPL 071820Z AUTO 16027KT 9999 FEW005/// BKN009/// BKN013/// 07/04 Q0971 31.1mph 7°C 4°C 6.0°C
07/01/23 17:50 EGPL 071750Z AUTO 16025KT 9999 BKN008/// BKN012/// OVC022/// 07/04 Q0971 28.8mph 7°C 4°C 6.0°C
07/01/23 17:20 EGPL 071720Z AUTO 17022KT 9999 BKN010/// OVC014/// 07/03 Q0972 25.3mph 7°C 3°C 5.7°C
07/01/23 16:50 EGPL 071650Z AUTO 17022KT 9999 SCT009/// BKN012/// 07/03 Q0973 25.3mph 7°C 3°C 5.7°C
07/01/23 16:20 EGPL 071620Z AUTO 17020KT 9999 BKN009/// 07/03 Q0973 23.0mph 7°C 3°C 5.7°C
07/01/23 15:50 EGPL 071550Z AUTO 17020KT 9999 BKN008/// 07/04 Q0974 23.0mph 7°C 4°C 6.0°C
07/01/23 15:20 EGPL 071520Z AUTO 17021KT 9999 BKN007/// 07/04 Q0975 RERA 24.2mph 7°C 4°C 6.0°C
07/01/23 14:50 EGPL 071450Z AUTO 18021KT 3800 RA BKN005/// OVC011/// 06/05 Q0976 RERA RA 24.2mph 6°C 5°C 5.3°C
07/01/23 14:20 EGPL 071420Z AUTO 16022KT 9999 BKN008/// OVC013/// 08/04 Q0976 25.3mph 8°C 4°C 7.0°C
07/01/23 13:50 EGPL 071350Z AUTO 16021KT 9999 BKN008/// BKN011/// 07/04 Q0977 24.2mph 7°C 4°C 6.0°C
07/01/23 12:50 EGPL 071250Z AUTO 17020KT 9999 SCT011/// 07/03 Q0979 23.0mph 7°C 3°C 5.7°C
07/01/23 12:20 EGPL 071220Z AUTO 16020KT 9999 NCD 07/03 Q0979 23.0mph 7°C 3°C 5.7°C
07/01/23 11:50 EGPL 071150Z 16018KT 9999 FEW022 07/03 Q0980 20.7mph 7°C 3°C 5.7°C
07/01/23 11:20 EGPL 071120Z 17018KT 9999 FEW022 07/03 Q0981 20.7mph 7°C 3°C 5.7°C
07/01/23 10:50 EGPL 071050Z 17013KT 9999 FEW022 06/03 Q0981 15.0mph 6°C 3°C 4.7°C
07/01/23 10:20 EGPL 071020Z 16010KT 9999 FEW020 05/02 Q0982 11.5mph 5°C 2°C 3.4°C
07/01/23 09:50 EGPL 070950Z 14006KT 9999 FEW018 04/02 Q0982 6.9mph 4°C 2°C 2.4°C
07/01/23 09:20 EGPL 070920Z 14008KT 9999 FEW018 04/01 Q0983 9.2mph 4°C 1°C 2.1°C
07/01/23 08:50 EGPL 070850Z 17010KT 9999 FEW017 05/02 Q0983 11.5mph 5°C 2°C 3.4°C
07/01/23 07:50 EGPL 070750Z 16008KT 9999 FEW015 04/01 Q0984 9.2mph 4°C 1°C 2.1°C
07/01/23 07:20 EGPL 070720Z 18009KT 9999 FEW014 04/01 Q0984 10.4mph 4°C 1°C 2.1°C
07/01/23 06:50 EGPL 070650Z 16006KT 9999 FEW012 04/02 Q0985 6.9mph 4°C 2°C 2.4°C